Time;durP1;ratioP1;P1;durP2;ratioP2;P2;SDS_P1;SDS_P2;PMS_P1;PMS_P2;Temp;Humidity;BMP_temperature;BMP_pressure;BME280_temperature;BME280_humidity;BME280_pressure;Samples;Min_cycle;Max_cycle;Signal;HPM_P1;HPM_P2
2023/09/13 00:02:49;;;;;;;20.83;12.38;;;21.30;78.90;;;;;;9169092;19;20018;-66
2023/09/13 00:05:54;;;;;;;18.40;11.43;;;21.30;79.00;;;;;;9164658;19;20053;-66
2023/09/13 00:09:03;;;;;;;22.70;12.07;;;21.30;79.10;;;;;;9164721;19;20018;-68
2023/09/13 00:12:11;;;;;;;20.35;11.82;;;21.20;79.10;;;;;;9164993;19;20018;-67
2023/09/13 00:15:19;;;;;;;18.65;11.70;;;21.20;79.20;;;;;;9167906;19;20479;-66
2023/09/13 00:18:24;;;;;;;22.20;12.93;;;21.20;79.50;;;;;;9169675;19;20034;-66
2023/09/13 00:21:32;;;;;;;21.83;12.80;;;21.30;79.50;;;;;;9168690;19;20356;-69
2023/09/13 00:24:38;;;;;;;17.83;12.25;;;21.20;80.20;;;;;;9169463;19;20022;-66
2023/09/13 00:27:48;;;;;;;21.73;12.10;;;21.20;79.70;;;;;;9163772;19;20013;-69
2023/09/13 00:30:53;;;;;;;22.67;12.80;;;21.20;79.70;;;;;;9162016;19;20014;-66
2023/09/13 00:34:01;;;;;;;20.80;13.25;;;21.20;79.80;;;;;;9159813;19;20007;-66
2023/09/13 00:37:06;;;;;;;18.42;10.98;;;21.20;80.00;;;;;;9170150;19;20018;-66
2023/09/13 00:40:14;;;;;;;31.42;12.90;;;21.20;79.80;;;;;;9167349;19;20011;-67
2023/09/13 00:43:23;;;;;;;21.90;13.25;;;21.20;80.10;;;;;;9167616;19;20015;-66
2023/09/13 00:46:30;;;;;;;15.75;11.18;;;21.20;80.40;;;;;;9167792;19;20014;-66
2023/09/13 00:49:36;;;;;;;21.13;12.38;;;21.20;80.00;;;;;;9168362;19;20087;-66
2023/09/13 00:52:45;;;;;;;19.98;12.52;;;21.20;80.50;;;;;;9167281;19;20011;-66
2023/09/13 00:55:53;;;;;;;22.88;11.75;;;21.20;80.40;;;;;;9168788;19;20015;-66
2023/09/13 00:59:04;;;;;;;30.50;13.35;;;21.10;80.40;;;;;;9168562;19;20006;-68
2023/09/13 01:02:09;;;;;;;19.17;12.10;;;21.10;80.70;;;;;;9168185;19;20019;-67
2023/09/13 01:05:19;;;;;;;20.30;13.15;;;21.10;80.50;;;;;;9168464;19;20021;-68
2023/09/13 01:08:25;;;;;;;26.90;13.13;;;21.10;80.50;;;;;;9169207;19;20033;-70
2023/09/13 01:11:35;;;;;;;22.67;13.20;;;21.10;80.80;;;;;;9168094;19;20783;-68
2023/09/13 01:14:43;;;;;;;22.38;12.90;;;21.10;80.70;;;;;;9168270;19;20464;-70
2023/09/13 01:17:56;;;;;;;19.35;12.70;;;21.10;81.20;;;;;;9166878;19;20044;-67
2023/09/13 01:21:20;;;;;;;26.35;13.38;;;21.10;81.80;;;;;;9165261;19;20022;-69
2023/09/13 01:24:50;;;;;;;17.40;12.48;;;21.10;81.50;;;;;;9164693;19;20021;-69
2023/09/13 01:28:07;;;;;;;21.40;12.68;;;21.20;81.60;;;;;;9163470;19;20064;-69
2023/09/13 01:31:21;;;;;;;22.45;14.00;;;21.10;81.90;;;;;;9153004;19;20684;-69
2023/09/13 01:34:26;;;;;;;19.92;12.65;;;21.10;81.90;;;;;;9161669;19;20741;-67
2023/09/13 01:37:34;;;;;;;18.40;12.75;;;21.10;81.70;;;;;;9159469;19;20017;-67
2023/09/13 01:40:43;;;;;;;18.25;12.68;;;21.10;81.80;;;;;;9161607;19;20018;-67
2023/09/13 01:43:53;;;;;;;19.02;12.68;;;21.20;82.80;;;;;;9157052;19;20587;-67
2023/09/13 01:47:03;;;;;;;22.85;13.93;;;21.00;82.40;;;;;;9158520;19;20793;-68
2023/09/13 01:50:11;;;;;;;21.10;13.52;;;21.20;82.80;;;;;;9159611;19;20021;-67
2023/09/13 01:53:17;;;;;;;20.33;13.40;;;21.10;82.60;;;;;;9161554;19;20022;-67
2023/09/13 01:56:25;;;;;;;18.17;13.50;;;21.10;82.50;;;;;;9160982;19;20014;-67
2023/09/13 01:59:30;;;;;;;20.65;13.98;;;21.10;82.70;;;;;;9159498;19;20353;-67
2023/09/13 02:02:40;;;;;;;20.25;14.00;;;21.10;82.90;;;;;;9157872;19;20010;-69
2023/09/13 02:05:46;;;;;;;28.05;14.82;;;21.20;83.10;;;;;;9158870;19;20018;-68
2023/09/13 02:08:55;;;;;;;20.40;13.88;;;21.10;83.10;;;;;;9162479;19;20010;-68
2023/09/13 02:12:00;;;;;;;23.85;15.95;;;21.10;83.00;;;;;;9158447;19;20015;-67
2023/09/13 02:15:10;;;;;;;25.02;15.48;;;21.10;83.10;;;;;;9158433;19;20750;-69
2023/09/13 02:18:17;;;;;;;23.02;14.82;;;21.10;82.90;;;;;;9159600;19;20405;-67
2023/09/13 02:21:25;;;;;;;26.95;14.95;;;21.10;83.20;;;;;;9154480;19;20060;-68
2023/09/13 02:24:30;;;;;;;24.63;15.02;;;21.30;83.30;;;;;;9156507;19;20364;-67
2023/09/13 02:27:37;;;;;;;22.65;14.80;;;21.10;83.50;;;;;;9161051;19;20014;-67
2023/09/13 02:30:43;;;;;;;22.52;15.30;;;21.10;83.50;;;;;;9163311;19;20843;-66
2023/09/13 02:33:53;;;;;;;27.40;15.82;;;21.10;83.50;;;;;;9173589;19;20018;-69
2023/09/13 02:36:59;;;;;;;25.98;16.17;;;21.10;83.70;;;;;;9175636;19;20014;-67
2023/09/13 02:40:09;;;;;;;30.45;17.08;;;21.10;84.00;;;;;;9175242;19;20033;-68
2023/09/13 02:43:14;;;;;;;25.15;15.60;;;21.10;83.80;;;;;;9179430;19;20038;-68
2023/09/13 02:46:22;;;;;;;26.48;15.90;;;21.10;84.40;;;;;;9178203;19;20054;-67
2023/09/13 02:49:30;;;;;;;26.40;15.63;;;21.10;84.70;;;;;;9177560;19;20023;-68
2023/09/13 02:52:38;;;;;;;23.48;16.13;;;21.10;84.80;;;;;;9172245;19;20022;-67
2023/09/13 02:55:43;;;;;;;26.35;16.35;;;21.10;84.90;;;;;;9177224;19;20017;-68
2023/09/13 02:58:51;;;;;;;29.15;15.68;;;21.10;85.00;;;;;;9175244;19;20011;-67
2023/09/13 03:01:57;;;;;;;25.20;15.88;;;21.00;85.40;;;;;;9175455;19;20843;-68
2023/09/13 03:05:08;;;;;;;25.58;15.98;;;21.00;86.20;;;;;;9172863;19;20049;-67
2023/09/13 03:08:14;;;;;;;28.20;17.33;;;21.10;85.30;;;;;;9174678;19;20921;-68
2023/09/13 03:11:21;;;;;;;25.55;16.48;;;21.10;86.10;;;;;;9173932;19;20014;-68
2023/09/13 03:14:26;;;;;;;28.88;15.80;;;21.00;86.60;;;;;;9173823;19;20022;-68
2023/09/13 03:17:34;;;;;;;27.70;15.65;;;21.10;87.40;;;;;;9173155;19;20028;-66
2023/09/13 03:20:44;;;;;;;23.83;15.82;;;21.00;89.80;;;;;;9173393;19;20781;-67
2023/09/13 03:23:52;;;;;;;25.33;15.38;;;21.00;90.50;;;;;;9175585;19;20011;-67
2023/09/13 03:26:58;;;;;;;24.52;15.57;;;20.90;92.30;;;;;;9175060;19;20019;-67
2023/09/13 03:30:08;;;;;;;18.02;13.93;;;20.90;81.10;;;;;;9174342;19;20472;-70
2023/09/13 03:33:13;;;;;;;25.50;14.85;;;20.90;81.70;;;;;;9163846;19;20010;-68
2023/09/13 03:36:24;;;;;;;26.65;15.13;;;20.90;81.70;;;;;;9167708;19;20017;-67
2023/09/13 03:39:31;;;;;;;27.65;16.10;;;20.80;81.80;;;;;;9171293;19;20014;-67
2023/09/13 03:42:39;;;;;;;25.90;17.48;;;20.80;81.80;;;;;;9168894;19;20550;-69
2023/09/13 03:45:45;;;;;;;27.55;15.35;;;20.80;81.80;;;;;;9174035;19;20011;-67
2023/09/13 03:48:52;;;;;;;26.63;16.67;;;20.80;81.90;;;;;;9171585;19;20495;-68
2023/09/13 03:52:01;;;;;;;23.40;15.52;;;20.90;81.90;;;;;;9170394;19;20021;-67
2023/09/13 03:55:10;;;;;;;21.83;15.30;;;20.80;82.00;;;;;;9170914;19;20480;-67
2023/09/13 03:58:15;;;;;;;26.42;16.25;;;20.80;82.00;;;;;;9170455;19;20022;-67
2023/09/13 04:01:24;;;;;;;31.30;17.25;;;20.80;82.00;;;;;;9172062;19;20019;-68
2023/09/13 04:04:29;;;;;;;26.63;17.17;;;20.80;82.00;;;;;;9170105;19;20033;-67
2023/09/13 04:07:39;;;;;;;24.27;16.30;;;20.80;82.10;;;;;;9170064;19;20022;-67
2023/09/13 04:10:45;;;;;;;28.60;17.02;;;20.80;82.10;;;;;;9170716;19;20014;-69
2023/09/13 04:13:52;;;;;;;26.38;16.25;;;20.80;82.10;;;;;;9168100;19;20362;-67
2023/09/13 04:16:57;;;;;;;30.02;18.35;;;20.80;82.20;;;;;;9169843;19;20022;-67
2023/09/13 04:20:06;;;;;;;35.03;17.90;;;20.80;82.20;;;;;;9171083;19;20788;-68
2023/09/13 04:23:14;;;;;;;25.42;17.17;;;20.70;82.20;;;;;;9169179;19;20026;-68
2023/09/13 04:26:23;;;;;;;27.40;17.67;;;20.80;82.40;;;;;;9169233;19;20921;-68
2023/09/13 04:29:28;;;;;;;29.00;16.95;;;20.70;82.30;;;;;;9168984;19;20019;-68
2023/09/13 04:32:36;;;;;;;27.83;16.85;;;20.70;82.30;;;;;;9164439;19;20015;-67
2023/09/13 04:35:42;;;;;;;27.15;16.65;;;20.70;82.40;;;;;;9170926;19;20833;-67
2023/09/13 04:38:52;;;;;;;31.48;16.58;;;20.70;82.40;;;;;;9165159;19;20014;-67
2023/09/13 04:41:58;;;;;;;24.17;16.95;;;20.70;82.50;;;;;;9167258;19;20028;-68
2023/09/13 04:45:06;;;;;;;31.15;18.10;;;20.70;82.40;;;;;;9170050;19;20022;-67
2023/09/13 04:48:12;;;;;;;26.98;17.15;;;20.70;82.50;;;;;;9169806;19;20111;-67
2023/09/13 04:51:19;;;;;;;33.45;18.60;;;20.70;82.50;;;;;;9169246;19;20022;-67
2023/09/13 04:54:28;;;;;;;26.35;17.38;;;20.70;82.50;;;;;;9166399;19;20602;-66
2023/09/13 04:57:36;;;;;;;26.35;17.48;;;20.70;82.60;;;;;;9171448;19;20010;-67
2023/09/13 05:00:41;;;;;;;25.75;16.55;;;20.70;82.50;;;;;;9169920;19;20551;-67
2023/09/13 05:03:49;;;;;;;27.73;17.55;;;20.70;83.20;;;;;;9169824;19;20010;-67
2023/09/13 05:06:56;;;;;;;26.58;15.43;;;20.70;82.60;;;;;;9168895;19;20018;-67
2023/09/13 05:10:06;;;;;;;31.65;16.10;;;20.70;82.60;;;;;;9168150;19;20015;-67
2023/09/13 05:13:12;;;;;;;26.95;16.15;;;20.70;82.70;;;;;;9168833;19;20082;-67
2023/09/13 05:16:21;;;;;;;26.83;17.50;;;20.60;82.70;;;;;;9166996;19;20377;-67
2023/09/13 05:19:26;;;;;;;29.80;18.52;;;20.60;82.70;;;;;;9168882;19;20047;-68
2023/09/13 05:22:34;;;;;;;25.80;17.50;;;20.60;82.70;;;;;;9168568;19;20018;-67
2023/09/13 05:25:48;;;;;;;32.90;17.98;;;20.60;82.70;;;;;;9168496;19;20421;-68
2023/09/13 05:28:56;;;;;;;27.40;16.63;;;20.60;82.80;;;;;;9167108;19;20018;-66
2023/09/13 05:32:02;;;;;;;28.08;18.75;;;20.60;82.70;;;;;;9161845;19;20048;-67
2023/09/13 05:35:10;;;;;;;26.67;16.58;;;20.60;82.80;;;;;;9165242;19;20017;-67
2023/09/13 05:38:16;;;;;;;26.73;16.40;;;20.60;82.90;;;;;;9167111;19;20398;-67
2023/09/13 05:41:26;;;;;;;26.95;17.42;;;20.60;82.90;;;;;;9167793;19;20018;-66
2023/09/13 05:44:33;;;;;;;32.35;18.05;;;20.60;83.00;;;;;;9170225;19;20026;-67
2023/09/13 05:47:40;;;;;;;27.50;18.20;;;20.60;82.90;;;;;;9167951;19;20018;-68
2023/09/13 05:50:45;;;;;;;27.17;17.60;;;20.60;82.90;;;;;;9168611;19;20018;-67
2023/09/13 05:53:53;;;;;;;24.42;16.70;;;20.60;82.90;;;;;;9165846;19;20396;-67
2023/09/13 05:57:00;;;;;;;32.92;16.90;;;20.60;82.90;;;;;;9166403;19;20056;-67
2023/09/13 06:00:10;;;;;;;32.45;16.85;;;20.60;83.00;;;;;;9167133;19;20026;-67
2023/09/13 06:03:16;;;;;;;31.45;17.98;;;20.60;83.00;;;;;;9165304;19;20011;-67
2023/09/13 06:06:24;;;;;;;29.67;18.88;;;20.50;83.00;;;;;;9164904;19;20022;-67
2023/09/13 06:09:29;;;;;;;27.52;17.83;;;20.60;83.10;;;;;;9163546;19;20018;-70
2023/09/13 06:12:39;;;;;;;29.33;18.02;;;20.50;83.10;;;;;;9156278;19;20034;-70
2023/09/13 06:15:45;;;;;;;26.75;18.00;;;20.60;83.20;;;;;;9156191;19;20021;-69
2023/09/13 06:18:52;;;;;;;32.60;19.25;;;20.60;83.20;;;;;;9154611;19;20140;-70
2023/09/13 06:21:58;;;;;;;29.35;17.50;;;20.60;83.30;;;;;;9156289;19;20022;-69
2023/09/13 06:25:05;;;;;;;28.88;17.65;;;20.50;83.20;;;;;;9155102;19;20006;-69
2023/09/13 06:28:17;;;;;;;27.85;17.88;;;20.60;83.30;;;;;;9158946;19;20025;-69
2023/09/13 06:31:25;;;;;;;29.13;17.05;;;20.60;83.40;;;;;;9154134;19;20017;-71
2023/09/13 06:34:38;;;;;;;31.85;16.75;;;20.50;83.30;;;;;;9156422;19;20023;-70
2023/09/13 06:37:47;;;;;;;27.58;16.45;;;20.60;83.40;;;;;;9155739;19;20023;-68
2023/09/13 06:40:53;;;;;;;25.25;14.38;;;20.60;83.40;;;;;;9158684;19;20022;-67
2023/09/13 06:44:09;;;;;;;25.95;13.73;;;20.60;83.40;;;;;;9152809;19;20032;-68
2023/09/13 06:47:15;;;;;;;20.00;12.70;;;20.60;83.50;;;;;;9151939;19;20025;-67
2023/09/13 06:50:24;;;;;;;18.05;12.05;;;20.60;83.30;;;;;;9158081;19;20129;-67
2023/09/13 06:53:50;;;;;;;5.13;2.85;;;20.60;83.40;;;;;;9151991;19;20025;-67
2023/09/13 06:57:00;;;;;;;4.13;0.90;;;20.60;83.10;;;;;;9154578;19;20025;-68
2023/09/13 07:00:17;;;;;;;3.92;0.77;;;20.40;82.50;;;;;;9153479;19;20539;-67
2023/09/13 07:03:34;;;;;;;2.90;1.00;;;20.30;82.10;;;;;;9155136;19;20011;-69
2023/09/13 07:06:44;;;;;;;6.35;1.10;;;20.10;81.90;;;;;;9154419;19;20492;-67
2023/09/13 07:09:52;;;;;;;2.92;1.23;;;19.80;81.50;;;;;;9161451;19;20010;-68
2023/09/13 07:12:57;;;;;;;3.40;1.05;;;19.60;81.50;;;;;;9160153;19;20070;-67
2023/09/13 07:16:07;;;;;;;3.20;1.88;;;19.40;81.40;;;;;;9155512;19;20475;-67
2023/09/13 07:19:13;;;;;;;2.83;1.30;;;19.20;81.30;;;;;;9166717;19;20034;-67
2023/09/13 07:22:20;;;;;;;3.25;1.00;;;19.00;81.40;;;;;;9161277;19;20022;-70
2023/09/13 07:25:25;;;;;;;4.10;1.08;;;18.80;81.30;;;;;;9163598;19;20031;-67
2023/09/13 07:28:33;;;;;;;4.15;1.60;;;18.60;81.40;;;;;;9163822;19;20054;-70
2023/09/13 07:31:41;;;;;;;3.72;1.25;;;18.50;81.40;;;;;;9160402;19;20022;-68
2023/09/13 07:34:48;;;;;;;1.83;0.65;;;18.30;81.40;;;;;;9164203;19;20018;-68
2023/09/13 07:37:54;;;;;;;4.07;1.00;;;18.20;81.40;;;;;;9167151;19;20018;-70
2023/09/13 07:41:05;;;;;;;2.17;0.93;;;18.10;81.50;;;;;;9165192;19;20013;-67
2023/09/13 07:44:11;;;;;;;2.20;0.93;;;18.00;81.50;;;;;;9165108;19;20345;-68
2023/09/13 07:47:22;;;;;;;3.08;1.00;;;17.90;81.50;;;;;;9160652;19;20706;-68
2023/09/13 07:50:31;;;;;;;3.45;1.30;;;17.80;81.70;;;;;;9164890;19;20391;-68
2023/09/13 07:53:39;;;;;;;3.35;1.42;;;17.70;82.20;;;;;;9165899;19;20019;-68
2023/09/13 07:56:44;;;;;;;3.50;0.93;;;17.60;84.20;;;;;;9166554;19;20052;-69
2023/09/13 07:59:52;;;;;;;5.60;1.13;;;17.70;95.20;;;;;;9162939;19;20021;-68
2023/09/13 08:03:00;;;;;;;8.57;2.00;;;17.40;82.00;;;;;;9172538;19;20619;-68
2023/09/13 08:06:08;;;;;;;5.28;1.70;;;17.40;82.20;;;;;;9166917;19;20010;-68
2023/09/13 08:09:17;;;;;;;2.17;1.30;;;17.30;82.00;;;;;;9166869;19;20033;-67
2023/09/13 08:12:24;;;;;;;26.58;2.03;;;17.30;82.10;;;;;;9168769;19;20018;-68
2023/09/13 08:15:30;;;;;;;3.03;1.33;;;17.30;82.10;;;;;;9168659;19;20023;-67
2023/09/13 08:18:57;;;;;;;4.82;1.60;;;17.20;82.10;;;;;;9167301;19;20026;-69
2023/09/13 08:22:04;;;;;;;2.95;1.15;;;17.20;82.50;;;;;;9167263;19;20019;-68
2023/09/13 08:25:11;;;;;;;4.20;1.17;;;17.20;82.30;;;;;;9164079;19;20018;-70
2023/09/13 08:28:17;;;;;;;5.57;1.10;;;17.20;82.30;;;;;;9162432;19;20025;-67
2023/09/13 08:31:25;;;;;;;6.38;1.60;;;17.50;87.40;;;;;;9161893;19;20018;-69
2023/09/13 08:34:35;;;;;;;7.95;2.10;;;17.20;82.40;;;;;;9159011;19;20844;-69
2023/09/13 08:37:42;;;;;;;6.60;1.63;;;17.20;82.30;;;;;;9162584;19;20014;-68
2023/09/13 08:40:49;;;;;;;5.63;1.65;;;17.10;82.20;;;;;;9156593;19;20014;-68
2023/09/13 08:44:01;;;;;;;4.20;1.20;;;17.10;82.20;;;;;;9157390;19;20025;-68
2023/09/13 08:47:10;;;;;;;6.43;1.55;;;17.10;82.20;;;;;;9157478;19;20019;-70
2023/09/13 08:50:24;;;;;;;2.78;1.35;;;17.10;82.10;;;;;;9157462;19;20014;-70
2023/09/13 08:53:30;;;;;;;2.97;1.00;;;17.10;82.20;;;;;;9159588;19;20556;-70
2023/09/13 08:56:42;;;;;;;5.18;1.50;;;17.10;82.30;;;;;;9153768;19;20007;-70
2023/09/13 08:59:47;;;;;;;4.35;1.23;;;17.00;82.40;;;;;;9157157;19;20528;-71
2023/09/13 09:02:57;;;;;;;4.88;1.40;;;17.10;82.60;;;;;;9153996;19;20015;-70
2023/09/13 09:06:07;;;;;;;4.13;1.20;;;17.20;82.70;;;;;;9154516;19;20117;-70
2023/09/13 09:09:15;;;;;;;3.85;1.30;;;17.40;83.00;;;;;;9154933;19;20603;-71
2023/09/13 09:12:26;;;;;;;3.00;1.63;;;17.50;82.90;;;;;;9156113;19;20496;-74
2023/09/13 09:15:36;;;;;;;5.32;1.83;;;17.80;83.10;;;;;;9153268;19;21098;-69
2023/09/13 09:18:42;;;;;;;4.55;1.77;;;18.00;82.80;;;;;;9157241;19;20022;-70
2023/09/13 09:21:53;;;;;;;4.47;1.20;;;18.20;82.50;;;;;;9151701;19;20041;-70
2023/09/13 09:24:59;;;;;;;3.53;1.23;;;18.50;82.70;;;;;;9155545;19;20022;-70
2023/09/13 09:28:07;;;;;;;3.00;1.20;;;18.80;88.80;;;;;;9154687;19;20014;-68
2023/09/13 09:31:13;;;;;;;6.38;1.30;;;18.90;85.50;;;;;;9150393;19;20388;-68
2023/09/13 09:34:20;;;;;;;6.45;1.58;;;18.80;84.90;;;;;;9157156;19;20376;-69
2023/09/13 09:37:34;;;;;;;4.03;1.60;;;19.00;82.30;;;;;;9153313;19;20744;-69
2023/09/13 09:40:41;;;;;;;3.00;1.35;;;19.00;81.30;;;;;;9156959;19;20384;-69
2023/09/13 09:43:47;;;;;;;7.47;1.67;;;19.10;80.90;;;;;;9156847;19;20398;-69
2023/09/13 09:46:54;;;;;;;4.15;1.52;;;19.20;83.80;;;;;;9156033;19;20034;-69
2023/09/13 09:50:06;;;;;;;4.93;1.60;;;19.10;80.20;;;;;;9157720;19;20282;-68
2023/09/13 09:53:17;;;;;;;4.18;1.55;;;19.20;79.60;;;;;;9153275;19;20343;-70
2023/09/13 09:56:24;;;;;;;2.55;1.20;;;19.20;79.50;;;;;;9154181;19;20018;-69
2023/09/13 09:59:31;;;;;;;5.25;1.40;;;19.30;79.70;;;;;;9155306;19;20091;-71
2023/09/13 10:02:37;;;;;;;3.05;1.30;;;19.30;79.50;;;;;;9161260;19;20038;-70
2023/09/13 10:05:57;;;;;;;3.28;1.10;;;19.30;79.50;;;;;;9159730;19;20014;-71
2023/09/13 10:09:06;;;;;;;3.60;1.27;;;19.40;79.40;;;;;;9163186;19;20011;-69
2023/09/13 10:12:15;;;;;;;4.22;1.30;;;19.50;79.50;;;;;;9164131;19;20024;-70
2023/09/13 10:15:21;;;;;;;2.97;1.42;;;19.60;79.40;;;;;;9164824;19;20023;-69
2023/09/13 10:18:28;;;;;;;3.22;1.10;;;19.40;81.60;;;;;;9158275;19;20013;-70
2023/09/13 10:21:35;;;;;;;4.00;1.60;;;19.80;79.40;;;;;;9154290;19;20037;-70
2023/09/13 10:24:52;;;;;;;7.13;2.10;;;20.00;81.80;;;;;;9151359;19;20038;-71
2023/09/13 10:27:59;;;;;;;4.07;1.70;;;20.20;82.00;;;;;;9151725;19;20022;-71
2023/09/13 10:31:12;;;;;;;4.43;1.77;;;20.30;82.20;;;;;;9152544;19;20022;-69
2023/09/13 10:34:25;;;;;;;4.50;1.67;;;20.20;78.50;;;;;;9158383;19;20015;-69
2023/09/13 10:37:39;;;;;;;4.30;2.03;;;20.30;78.30;;;;;;9157070;19;20011;-69
2023/09/13 10:40:53;;;;;;;5.50;2.40;;;20.30;77.90;;;;;;9158831;19;20011;-69
2023/09/13 10:44:00;;;;;;;10.90;2.47;;;20.40;78.70;;;;;;9158436;19;20460;-69
2023/09/13 10:47:07;;;;;;;5.85;2.17;;;20.40;77.70;;;;;;9154394;19;20018;-71
2023/09/13 10:50:17;;;;;;;6.72;2.33;;;20.30;77.40;;;;;;9158142;19;20022;-70
2023/09/13 10:53:24;;;;;;;4.88;1.73;;;20.30;77.20;;;;;;9171728;19;20480;-71
2023/09/13 10:56:35;;;;;;;6.32;2.42;;;20.30;77.10;;;;;;9170201;19;20022;-70
2023/09/13 10:59:42;;;;;;;5.85;2.10;;;20.30;77.00;;;;;;9173217;19;20049;-70
2023/09/13 11:02:50;;;;;;;9.57;2.33;;;20.20;76.70;;;;;;9173538;19;20026;-72
2023/09/13 11:05:59;;;;;;;6.40;2.78;;;20.20;76.60;;;;;;9171729;19;20018;-71
2023/09/13 11:09:17;;;;;;;11.02;2.63;;;20.20;76.50;;;;;;9171422;19;20480;-71
2023/09/13 11:12:29;;;;;;;7.97;2.22;;;20.10;76.30;;;;;;9170463;19;20656;-69
2023/09/13 11:15:49;;;;;;;6.45;2.05;;;20.10;76.40;;;;;;9170960;19;20041;-71
2023/09/13 11:19:00;;;;;;;7.47;2.42;;;20.10;76.50;;;;;;9170351;19;20550;-69
2023/09/13 11:22:07;;;;;;;10.63;2.50;;;20.10;76.40;;;;;;9169671;19;20376;-69
2023/09/13 11:25:15;;;;;;;10.10;2.63;;;20.10;76.60;;;;;;9168721;19;20016;-69
2023/09/13 11:28:48;;;;;;;;;;;20.10;76.70;;;;;;9173535;19;20018;-68
2023/09/13 11:32:03;;;;;;;7.18;2.35;;;20.10;77.20;;;;;;9166046;19;20333;-70
2023/09/13 11:35:13;;;;;;;7.45;2.30;;;20.10;76.90;;;;;;9169694;19;20366;-71
2023/09/13 11:38:19;;;;;;;5.95;2.08;;;20.10;76.40;;;;;;9166183;19;20472;-70
2023/09/13 11:41:28;;;;;;;7.45;2.28;;;20.10;76.40;;;;;;9167122;19;20408;-70
2023/09/13 11:44:36;;;;;;;5.30;1.90;;;20.20;76.70;;;;;;9168840;19;20024;-71
2023/09/13 11:48:05;;;;;;;5.85;2.47;;;20.40;77.80;;;;;;9165727;19;20366;-71
2023/09/13 11:51:13;;;;;;;7.20;2.30;;;20.50;76.30;;;;;;9168753;19;20015;-70
2023/09/13 11:54:25;;;;;;;6.38;2.10;;;20.60;76.10;;;;;;9166231;19;20476;-69
2023/09/13 11:57:52;;;;;;;9.00;1.77;;;20.70;76.10;;;;;;9161342;19;20460;-70
2023/09/13 12:01:07;;;;;;;6.15;2.05;;;21.00;76.00;;;;;;9159355;19;20369;-71
2023/09/13 12:04:14;;;;;;;5.93;1.92;;;21.20;77.40;;;;;;9165437;19;20101;-69
2023/09/13 12:07:33;;;;;;;7.97;2.33;;;21.20;76.60;;;;;;9166040;19;20037;-70
2023/09/13 12:10:40;;;;;;;2.80;1.80;;;21.30;75.90;;;;;;9167147;19;20014;-70
2023/09/13 12:13:52;;;;;;;5.20;2.40;;;21.40;76.60;;;;;;9168662;19;20019;-70
2023/09/13 12:17:19;;;;;;;5.60;2.00;;;21.40;77.80;;;;;;9160951;19;20045;-71
2023/09/13 12:20:28;;;;;;;5.00;1.70;;;21.50;78.10;;;;;;9164646;19;20504;-70
2023/09/13 12:23:36;;;;;;;11.38;1.73;;;21.30;74.70;;;;;;9162256;19;20022;-70
2023/09/13 12:26:44;;;;;;;5.07;1.63;;;21.30;74.10;;;;;;9164346;19;20011;-70
2023/09/13 12:29:51;;;;;;;6.45;1.90;;;21.20;74.10;;;;;;9165285;19;20249;-71
2023/09/13 12:33:01;;;;;;;5.88;1.80;;;21.10;74.00;;;;;;9162866;19;20018;-71
2023/09/13 12:36:08;;;;;;;6.30;1.55;;;21.10;74.10;;;;;;9165792;19;20027;-71
2023/09/13 12:39:16;;;;;;;7.10;1.80;;;21.00;74.10;;;;;;9159233;19;20018;-69
2023/09/13 12:42:21;;;;;;;5.55;1.63;;;20.90;74.10;;;;;;9162106;19;20032;-70
2023/09/13 12:45:32;;;;;;;7.00;2.00;;;20.80;74.10;;;;;;9165188;19;20017;-71
2023/09/13 12:48:40;;;;;;;9.43;1.80;;;20.70;74.00;;;;;;9156942;19;20022;-70
2023/09/13 12:51:49;;;;;;;5.15;2.20;;;20.70;74.00;;;;;;9159250;19;20026;-70
2023/09/13 12:54:57;;;;;;;9.10;1.80;;;20.60;74.10;;;;;;9160538;19;20498;-69
2023/09/13 12:58:05;;;;;;;9.15;2.97;;;20.50;74.00;;;;;;9159472;19;20476;-69
2023/09/13 13:01:11;;;;;;;8.38;1.85;;;20.50;74.00;;;;;;9162009;19;20031;-70
2023/09/13 13:04:23;;;;;;;6.45;1.80;;;20.40;74.10;;;;;;9161201;19;20007;-70
2023/09/13 13:07:33;;;;;;;8.80;1.92;;;20.40;73.90;;;;;;9159134;19;20014;-69
2023/09/13 13:10:57;;;;;;;5.15;1.48;;;20.40;73.90;;;;;;9166904;19;20014;-71
2023/09/13 13:14:02;;;;;;;10.60;2.10;;;20.40;73.70;;;;;;9164664;19;20014;-70
2023/09/13 13:17:10;;;;;;;4.70;1.70;;;20.40;73.90;;;;;;9161058;19;20055;-70
2023/09/13 13:20:18;;;;;;;5.18;1.55;;;20.40;73.80;;;;;;9146986;19;20061;-65
2023/09/13 13:23:37;;;;;;;5.05;1.52;;;20.40;73.70;;;;;;9161319;19;20383;-69
2023/09/13 13:26:42;;;;;;;8.52;2.22;;;20.40;73.60;;;;;;9160137;19;20018;-65
2023/09/13 13:29:50;;;;;;;3.17;1.73;;;20.40;73.60;;;;;;9165315;19;20018;-65
2023/09/13 13:32:55;;;;;;;5.20;1.90;;;20.40;73.40;;;;;;9158519;19;20090;-65
2023/09/13 13:36:06;;;;;;;6.53;1.83;;;20.40;73.30;;;;;;9165800;19;20017;-65
2023/09/13 13:39:15;;;;;;;12.63;2.00;;;20.50;73.20;;;;;;9162883;19;20015;-69
2023/09/13 13:42:22;;;;;;;3.78;1.75;;;20.50;73.20;;;;;;9164892;19;20647;-69
2023/09/13 13:45:27;;;;;;;6.70;2.40;;;20.60;73.20;;;;;;9163379;19;20027;-65
2023/09/13 13:48:36;;;;;;;6.82;1.73;;;20.70;73.10;;;;;;9163324;19;20014;-69
2023/09/13 13:51:45;;;;;;;8.00;1.73;;;20.70;72.90;;;;;;9163944;19;20388;-68
2023/09/13 13:54:53;;;;;;;15.23;2.20;;;20.80;72.80;;;;;;9162804;19;20022;-68
2023/09/13 13:57:59;;;;;;;5.45;2.00;;;20.80;72.70;;;;;;9162346;19;20090;-64
2023/09/13 14:01:06;;;;;;;7.82;2.20;;;20.90;72.80;;;;;;9158498;19;20011;-70
2023/09/13 14:04:11;;;;;;;10.25;2.15;;;20.90;72.60;;;;;;9160395;19;20371;-65
2023/09/13 14:07:22;;;;;;;5.22;1.83;;;21.00;72.60;;;;;;9163485;19;20471;-63
2023/09/13 14:10:27;;;;;;;3.95;1.88;;;21.00;72.50;;;;;;9161958;19;20089;-68
2023/09/13 14:13:35;;;;;;;5.47;1.90;;;21.00;72.40;;;;;;9159323;19;20015;-66
2023/09/13 14:16:40;;;;;;;7.15;1.98;;;20.90;72.30;;;;;;9156826;19;20078;-67
2023/09/13 14:19:48;;;;;;;4.50;1.80;;;21.00;72.30;;;;;;9156326;19;20009;-69
2023/09/13 14:22:56;;;;;;;5.07;1.70;;;20.90;72.20;;;;;;9160346;19;20329;-66
2023/09/13 14:26:03;;;;;;;4.93;1.73;;;20.90;72.10;;;;;;9162618;19;20017;-66
2023/09/13 14:29:11;;;;;;;4.88;2.10;;;20.90;72.20;;;;;;9171210;19;20049;-67
2023/09/13 14:32:19;;;;;;;4.00;1.70;;;20.90;72.10;;;;;;9169878;19;20022;-67
2023/09/13 14:35:24;;;;;;;6.50;1.83;;;20.90;72.10;;;;;;9173514;19;20015;-72
2023/09/13 14:38:34;;;;;;;5.18;1.65;;;20.90;72.10;;;;;;9171670;19;20802;-67
2023/09/13 14:41:41;;;;;;;6.70;2.20;;;20.90;72.10;;;;;;9168684;19;20023;-66
2023/09/13 14:44:48;;;;;;;6.38;2.25;;;20.80;72.00;;;;;;9168415;19;20026;-70
2023/09/13 14:47:53;;;;;;;11.77;2.03;;;20.80;72.00;;;;;;9168257;19;20495;-65
2023/09/13 14:51:01;;;;;;;8.93;2.13;;;20.80;71.90;;;;;;9174413;19;20018;-68
2023/09/13 14:54:09;;;;;;;9.55;2.17;;;20.80;72.00;;;;;;9172297;19;20038;-66
2023/09/13 14:57:17;;;;;;;7.82;1.80;;;20.80;72.00;;;;;;9170593;19;20380;-66
2023/09/13 15:00:22;;;;;;;12.35;1.98;;;20.80;71.90;;;;;;9165564;19;20015;-66
2023/09/13 15:03:30;;;;;;;9.05;2.13;;;20.70;71.70;;;;;;9169381;19;20021;-65
2023/09/13 15:06:40;;;;;;;7.82;1.90;;;20.70;71.70;;;;;;9172016;19;20026;-64
2023/09/13 15:09:50;;;;;;;10.30;1.90;;;20.60;71.60;;;;;;9170288;19;20022;-66
2023/09/13 15:12:57;;;;;;;6.80;2.22;;;21.20;72.30;;;;;;9164113;19;20102;-64
2023/09/13 15:16:04;;;;;;;11.43;2.40;;;20.70;71.60;;;;;;9158079;19;20897;-65
2023/09/13 15:19:10;;;;;;;7.68;1.85;;;20.50;71.40;;;;;;9164249;19;20460;-68
2023/09/13 15:22:17;;;;;;;9.77;1.83;;;20.60;71.50;;;;;;9166931;19;20019;-64
2023/09/13 15:25:25;;;;;;;8.93;1.80;;;20.60;71.60;;;;;;9165925;19;20487;-66
2023/09/13 15:28:33;;;;;;;12.95;2.47;;;20.50;71.50;;;;;;9163037;19;20022;-67
2023/09/13 15:31:38;;;;;;;10.90;2.10;;;20.50;71.50;;;;;;9162078;19;20020;-66
2023/09/13 15:35:08;;;;;;;8.32;2.42;;;20.50;71.30;;;;;;9161052;19;20021;-67
2023/09/13 15:38:13;;;;;;;8.00;2.40;;;20.50;71.30;;;;;;9160589;19;20468;-65
2023/09/13 15:41:24;;;;;;;7.38;1.80;;;20.50;71.40;;;;;;9170685;19;20032;-63
2023/09/13 15:44:30;;;;;;;3.78;1.27;;;20.40;71.20;;;;;;9171648;19;20018;-64
2023/09/13 15:47:37;;;;;;;8.63;1.55;;;20.40;71.40;;;;;;9169904;19;20108;-65
2023/09/13 15:50:42;;;;;;;8.40;1.42;;;20.30;71.20;;;;;;9170540;19;20029;-66
2023/09/13 15:53:50;;;;;;;7.47;2.00;;;20.30;71.40;;;;;;9171093;19;20053;-65
2023/09/13 15:56:58;;;;;;;8.13;1.65;;;20.20;72.00;;;;;;9169293;19;20817;-68
2023/09/13 16:00:08;;;;;;;6.40;1.27;;;20.30;71.40;;;;;;9169218;19;20015;-69
2023/09/13 16:03:13;;;;;;;14.38;2.05;;;20.20;71.30;;;;;;9170805;19;20093;-66
2023/09/13 16:06:22;;;;;;;6.88;1.65;;;20.20;71.90;;;;;;9171920;19;20089;-64
2023/09/13 16:09:28;;;;;;;14.05;2.25;;;20.30;71.50;;;;;;9169316;19;20414;-66
2023/09/13 16:12:38;;;;;;;10.80;1.70;;;20.20;71.70;;;;;;9167488;19;20025;-66